Time;durP1;ratioP1;P1;durP2;ratioP2;P2;SDS_P1;SDS_P2;PMS_P1;PMS_P2;Temp;Humidity;BMP_temperature;BMP_pressure;BME280_temperature;BME280_humidity;BME280_pressure;Samples;Min_cycle;Max_cycle;Signal;HPM_P1;HPM_P2
2022/07/18 00:02:16;;;;;;;7.32;4.95;;;16.70;99.90;;;;;;5046561;28;20124;-73
2022/07/18 00:04:42;;;;;;;5.72;4.40;;;16.50;99.90;;;;;;5045803;28;20049;-73
2022/07/18 00:07:10;;;;;;;7.28;5.63;;;16.40;99.90;;;;;;5051847;28;20094;-73
2022/07/18 00:09:36;;;;;;;8.35;5.50;;;16.50;99.90;;;;;;5042437;28;20048;-74
2022/07/18 00:12:04;;;;;;;6.28;4.05;;;16.40;99.90;;;;;;5027915;28;20048;-73
2022/07/18 00:14:30;;;;;;;6.70;4.22;;;16.20;99.90;;;;;;5046286;28;20083;-73
2022/07/18 00:16:55;;;;;;;9.02;5.05;;;16.40;99.90;;;;;;5059671;28;20077;-73
2022/07/18 00:19:21;;;;;;;8.27;5.05;;;16.40;99.90;;;;;;5065696;28;20040;-74
2022/07/18 00:21:47;;;;;;;9.75;5.15;;;16.40;99.90;;;;;;5067215;28;20399;-74
2022/07/18 00:24:12;;;;;;;7.88;4.10;;;16.50;99.90;;;;;;5046807;28;20506;-73
2022/07/18 00:26:38;;;;;;;10.38;5.03;;;16.50;99.90;;;;;;5044719;28;20164;-74
2022/07/18 00:29:04;;;;;;;8.98;5.38;;;16.60;99.90;;;;;;5046291;28;20045;-74
2022/07/18 00:31:30;;;;;;;9.23;4.53;;;16.70;99.90;;;;;;5044646;28;20041;-74
2022/07/18 00:33:55;;;;;;;7.13;4.57;;;16.60;99.90;;;;;;5046335;28;20671;-74
2022/07/18 00:36:21;;;;;;;6.80;5.65;;;16.60;99.90;;;;;;5044150;28;20376;-74
2022/07/18 00:38:48;;;;;;;10.05;5.78;;;16.60;99.90;;;;;;5051275;28;20120;-73
2022/07/18 00:41:15;;;;;;;7.75;5.88;;;16.60;99.90;;;;;;5041840;28;20067;-74
2022/07/18 00:43:41;;;;;;;8.27;4.72;;;16.60;99.90;;;;;;5051939;28;20127;-73
2022/07/18 00:46:07;;;;;;;9.30;5.05;;;16.60;99.90;;;;;;5064638;28;20140;-73
2022/07/18 00:48:32;;;;;;;10.68;5.65;;;16.70;99.90;;;;;;5060828;28;20040;-73
2022/07/18 00:50:58;;;;;;;8.57;5.03;;;16.60;99.90;;;;;;5051445;28;20408;-74
2022/07/18 00:53:24;;;;;;;9.10;5.32;;;16.60;99.90;;;;;;5046075;28;20037;-74
2022/07/18 00:55:49;;;;;;;8.32;5.38;;;16.50;99.90;;;;;;5044244;28;20045;-74
2022/07/18 00:58:15;;;;;;;13.38;5.65;;;16.50;99.90;;;;;;5046457;28;20497;-74
2022/07/18 01:03:26;;;;;;;10.07;6.18;;;16.30;99.90;;;;;;5062065;28;20048;-73
2022/07/18 01:05:52;;;;;;;6.30;4.75;;;16.00;99.90;;;;;;5055211;28;20079;-73
2022/07/18 01:08:18;;;;;;;7.60;5.03;;;16.00;99.90;;;;;;5049367;28;20045;-73
2022/07/18 01:10:43;;;;;;;4.93;4.15;;;16.00;99.90;;;;;;5044375;28;20396;-73
2022/07/18 01:13:09;;;;;;;7.32;5.00;;;15.80;99.90;;;;;;5043305;28;20048;-73
2022/07/18 01:15:36;;;;;;;6.30;4.45;;;15.90;99.90;;;;;;5044397;28;20103;-73
2022/07/18 01:18:02;;;;;;;8.32;5.15;;;15.80;99.90;;;;;;5044027;28;20129;-73
2022/07/18 01:20:29;;;;;;;8.18;5.10;;;15.70;99.90;;;;;;5062505;28;20051;-72
2022/07/18 01:22:55;;;;;;;9.77;5.00;;;15.70;99.90;;;;;;5053818;28;20048;-73
2022/07/18 01:25:20;;;;;;;7.43;5.32;;;15.70;99.90;;;;;;5064530;28;20043;-74
2022/07/18 01:27:46;;;;;;;8.23;4.40;;;15.50;99.90;;;;;;5051137;28;20049;-73
2022/07/18 01:30:12;;;;;;;5.68;4.93;;;15.40;99.90;;;;;;5044157;28;20025;-73
2022/07/18 01:32:37;;;;;;;11.20;6.53;;;15.20;99.90;;;;;;5045509;28;20049;-74
2022/07/18 01:35:04;;;;;;;9.82;6.65;;;15.10;99.90;;;;;;5042968;28;20041;-74
2022/07/18 01:37:30;;;;;;;7.90;5.32;;;15.30;99.90;;;;;;5047465;28;20037;-74
2022/07/18 01:39:55;;;;;;;8.20;5.10;;;15.30;99.90;;;;;;5058597;28;20407;-74
2022/07/18 01:42:21;;;;;;;9.15;6.15;;;15.50;99.90;;;;;;5043549;28;20033;-74
2022/07/18 01:44:47;;;;;;;9.18;6.05;;;15.70;99.90;;;;;;5056709;28;20087;-74
2022/07/18 01:47:12;;;;;;;10.70;6.50;;;15.70;99.90;;;;;;5045711;28;20045;-74
2022/07/18 01:49:39;;;;;;;9.60;7.90;;;15.70;99.90;;;;;;5049107;22;20049;-74
2022/07/18 01:52:06;;;;;;;11.60;6.68;;;15.70;99.90;;;;;;5039944;28;20406;-74
2022/07/18 01:54:33;;;;;;;9.50;6.72;;;15.80;99.90;;;;;;5041441;28;20115;-74
2022/07/18 01:57:01;;;;;;;9.38;7.43;;;15.70;99.90;;;;;;5045364;28;20036;-74
2022/07/18 01:59:27;;;;;;;9.18;5.78;;;15.60;99.90;;;;;;5038114;28;20045;-74
2022/07/18 02:01:53;;;;;;;8.32;5.97;;;15.50;99.90;;;;;;5045389;28;20048;-74
2022/07/18 02:04:18;;;;;;;10.35;6.60;;;15.50;99.90;;;;;;5045056;28;20041;-74
2022/07/18 02:06:44;;;;;;;8.70;6.32;;;15.40;99.90;;;;;;5044632;28;20052;-73
2022/07/18 02:09:11;;;;;;;6.63;5.85;;;15.50;99.90;;;;;;5050091;28;20032;-74
2022/07/18 02:11:37;;;;;;;10.15;6.85;;;15.20;99.90;;;;;;5052335;28;20050;-73
2022/07/18 02:14:04;;;;;;;7.70;5.93;;;15.10;99.90;;;;;;5075418;28;20483;-74
2022/07/18 02:16:30;;;;;;;7.75;6.22;;;14.90;99.90;;;;;;5045602;28;20045;-75
2022/07/18 02:18:56;;;;;;;15.35;6.32;;;15.00;99.90;;;;;;5040991;28;20045;-74
2022/07/18 02:21:22;;;;;;;7.45;5.63;;;15.10;99.90;;;;;;5046784;28;20519;-74
2022/07/18 02:23:50;;;;;;;7.70;5.10;;;15.20;99.90;;;;;;5026531;28;20045;-73
2022/07/18 02:26:17;;;;;;;12.02;8.45;;;15.30;99.90;;;;;;5044048;28;20091;-74
2022/07/18 02:28:43;;;;;;;9.77;7.22;;;15.30;99.90;;;;;;5011299;28;20041;-74
2022/07/18 02:31:08;;;;;;;9.95;6.35;;;15.40;99.90;;;;;;5042042;28;20764;-74
2022/07/18 02:33:34;;;;;;;9.27;7.13;;;15.30;99.90;;;;;;5051035;28;20032;-74
2022/07/18 02:36:00;;;;;;;10.18;5.82;;;15.40;99.90;;;;;;5052437;28;20128;-74
2022/07/18 02:38:26;;;;;;;9.88;7.18;;;15.30;99.90;;;;;;5044436;28;20036;-73
2022/07/18 02:40:52;;;;;;;10.82;6.28;;;15.50;99.90;;;;;;5047212;28;20475;-74
2022/07/18 02:43:17;;;;;;;14.40;7.47;;;15.40;99.90;;;;;;5079154;28;20037;-74
2022/07/18 02:45:43;;;;;;;9.20;6.10;;;15.50;99.90;;;;;;5047954;28;20460;-74
2022/07/18 02:48:09;;;;;;;13.85;7.07;;;15.40;99.90;;;;;;5043417;28;20502;-73
2022/07/18 02:50:34;;;;;;;11.38;6.78;;;15.40;99.90;;;;;;5048954;28;20475;-75
2022/07/18 02:53:00;;;;;;;7.50;6.47;;;15.50;99.90;;;;;;5050088;28;20044;-74
2022/07/18 02:55:26;;;;;;;12.20;7.32;;;15.60;99.90;;;;;;5049371;28;20041;-73
2022/07/18 02:57:51;;;;;;;11.20;6.30;;;15.50;99.90;;;;;;5047770;28;20051;-74
2022/07/18 03:00:17;;;;;;;14.13;7.10;;;15.40;99.90;;;;;;5046620;28;20052;-74
2022/07/18 03:02:44;;;;;;;10.15;8.02;;;15.40;99.90;;;;;;5044513;28;20392;-74
2022/07/18 03:05:11;;;;;;;9.65;8.25;;;15.40;99.90;;;;;;5047260;28;20501;-74
2022/07/18 03:07:37;;;;;;;8.32;7.15;;;15.40;99.90;;;;;;5047316;28;20041;-74
2022/07/18 03:10:04;;;;;;;8.50;6.45;;;15.40;99.90;;;;;;5046552;28;20119;-74
2022/07/18 03:12:30;;;;;;;10.93;7.47;;;15.40;99.90;;;;;;5048075;28;20041;-72
2022/07/18 03:14:55;;;;;;;9.98;6.93;;;15.40;99.90;;;;;;5047546;28;20044;-74
2022/07/18 03:17:21;;;;;;;12.80;6.93;;;15.30;99.90;;;;;;5051756;28;20041;-73
2022/07/18 03:19:47;;;;;;;13.27;7.70;;;15.30;99.90;;;;;;5046271;28;20041;-73
2022/07/18 03:22:12;;;;;;;13.98;8.65;;;15.30;99.90;;;;;;5046856;28;20037;-74
2022/07/18 03:24:38;;;;;;;9.23;7.03;;;15.30;99.90;;;;;;5046373;28;20293;-74
2022/07/18 03:27:04;;;;;;;8.75;7.30;;;15.40;99.90;;;;;;5063673;28;20102;-73
2022/07/18 03:29:29;;;;;;;11.73;7.30;;;15.40;99.90;;;;;;5061427;28;20036;-73
2022/07/18 03:31:55;;;;;;;13.27;7.75;;;15.30;99.90;;;;;;5045471;28;20070;-74
2022/07/18 03:34:21;;;;;;;13.05;8.55;;;15.30;99.90;;;;;;5044425;28;20045;-73
2022/07/18 03:36:46;;;;;;;11.30;7.38;;;15.40;99.90;;;;;;5049548;28;20055;-74
2022/07/18 03:39:12;;;;;;;9.07;7.45;;;15.30;99.90;;;;;;5078483;28;20069;-73
2022/07/18 03:41:39;;;;;;;11.65;7.15;;;15.20;99.90;;;;;;5047690;28;20049;-73
2022/07/18 03:44:05;;;;;;;12.57;7.95;;;15.30;99.90;;;;;;5042467;28;20506;-74
2022/07/18 03:46:31;;;;;;;10.90;7.07;;;15.40;99.90;;;;;;5046356;28;20037;-74
2022/07/18 03:48:57;;;;;;;13.20;7.75;;;15.40;99.90;;;;;;5074491;28;20091;-73
2022/07/18 03:51:24;;;;;;;11.90;8.15;;;15.30;99.90;;;;;;5046565;28;20132;-74
2022/07/18 03:53:50;;;;;;;8.48;6.78;;;15.40;99.90;;;;;;5046196;28;20085;-74
2022/07/18 03:56:16;;;;;;;10.65;8.23;;;15.40;99.90;;;;;;5046139;28;20127;-74
2022/07/18 03:58:42;;;;;;;12.93;8.20;;;15.40;99.90;;;;;;5047432;28;20025;-74
2022/07/18 04:01:08;;;;;;;13.90;8.85;;;15.30;99.90;;;;;;5046889;28;20053;-75
2022/07/18 04:03:34;;;;;;;12.38;7.60;;;15.40;99.90;;;;;;5045395;28;20597;-74
2022/07/18 04:05:59;;;;;;;13.52;8.45;;;15.30;99.90;;;;;;5046126;28;20201;-75
2022/07/18 04:08:25;;;;;;;8.82;7.43;;;15.30;99.90;;;;;;5045330;28;20095;-74
2022/07/18 04:10:51;;;;;;;10.25;6.45;;;15.30;99.90;;;;;;5058902;28;20044;-75
2022/07/18 04:13:16;;;;;;;13.38;7.30;;;15.30;99.90;;;;;;5048647;28;20059;-75
2022/07/18 04:15:42;;;;;;;14.77;8.05;;;15.40;99.90;;;;;;5044578;28;20115;-75
2022/07/18 04:18:08;;;;;;;9.60;6.97;;;15.40;99.90;;;;;;5045009;28;20569;-74
2022/07/18 04:20:35;;;;;;;13.65;8.32;;;15.50;99.90;;;;;;5045127;28;20162;-75
2022/07/18 04:23:03;;;;;;;11.75;7.45;;;15.50;99.90;;;;;;5061647;28;20538;-75
2022/07/18 04:25:37;;;;;;;10.93;6.57;;;15.50;99.90;;;;;;5061702;28;20048;-75
2022/07/18 04:28:04;;;;;;;14.60;7.22;;;15.60;99.90;;;;;;5046328;28;20041;-75
2022/07/18 04:30:30;;;;;;;9.68;6.13;;;15.70;99.90;;;;;;5043533;28;20037;-75
2022/07/18 04:32:57;;;;;;;8.48;6.30;;;15.80;99.90;;;;;;5046553;28;20057;-75
2022/07/18 04:35:23;;;;;;;10.00;7.53;;;15.80;99.90;;;;;;5046000;28;20383;-75
2022/07/18 04:37:50;;;;;;;10.05;6.55;;;15.80;99.90;;;;;;5046079;28;20048;-74
2022/07/18 04:40:17;;;;;;;10.93;6.10;;;15.80;99.90;;;;;;5043985;28;20037;-74
2022/07/18 04:42:43;;;;;;;16.67;7.47;;;15.80;99.90;;;;;;5043330;28;20032;-74
2022/07/18 04:45:09;;;;;;;10.90;6.80;;;15.90;99.90;;;;;;5045299;28;20158;-72
2022/07/18 04:47:35;;;;;;;9.20;7.47;;;15.90;99.90;;;;;;5044300;28;20056;-74
2022/07/18 04:50:01;;;;;;;12.35;8.07;;;15.90;99.90;;;;;;5043034;28;20049;-73
2022/07/18 04:52:27;;;;;;;10.57;6.38;;;15.90;99.90;;;;;;5046088;28;20467;-74
2022/07/18 04:54:53;;;;;;;7.93;6.07;;;15.90;99.90;;;;;;5052212;28;20028;-74
2022/07/18 04:57:18;;;;;;;14.05;7.22;;;15.90;99.90;;;;;;5046240;28;20127;-73
2022/07/18 04:59:45;;;;;;;10.18;6.45;;;15.90;99.90;;;;;;5045611;28;20576;-76
2022/07/18 05:02:11;;;;;;;12.98;6.75;;;15.90;99.90;;;;;;5073349;28;20568;-73
2022/07/18 05:04:38;;;;;;;13.40;6.88;;;15.90;99.90;;;;;;5045057;28;20104;-75
2022/07/18 05:07:06;;;;;;;12.68;6.72;;;15.90;99.90;;;;;;5044603;28;20052;-76
2022/07/18 05:09:32;;;;;;;10.20;6.30;;;15.90;99.90;;;;;;5043402;28;20036;-74
2022/07/18 05:11:58;;;;;;;9.35;6.60;;;16.00;99.90;;;;;;5043408;28;20102;-73
2022/07/18 05:14:24;;;;;;;8.60;5.95;;;16.00;99.90;;;;;;5043770;28;20124;-74
2022/07/18 05:16:49;;;;;;;9.35;6.75;;;15.90;99.90;;;;;;5041694;28;20407;-76
2022/07/18 05:19:15;;;;;;;12.15;6.72;;;16.10;99.90;;;;;;5041802;28;20052;-73
2022/07/18 05:21:44;;;;;;;9.63;5.43;;;16.00;99.90;;;;;;5042787;28;20167;-73
2022/07/18 05:24:11;;;;;;;11.82;7.32;;;16.00;99.90;;;;;;5048514;28;20044;-74
2022/07/18 05:26:37;;;;;;;11.15;6.38;;;16.10;99.90;;;;;;5055721;28;20575;-75
2022/07/18 05:29:03;;;;;;;8.02;6.38;;;16.20;99.90;;;;;;5076555;28;20127;-74
2022/07/18 05:31:29;;;;;;;9.75;6.15;;;16.20;99.90;;;;;;5075941;28;20049;-74
2022/07/18 05:33:54;;;;;;;6.88;5.35;;;16.20;99.90;;;;;;5046658;28;20089;-75
2022/07/18 05:36:20;;;;;;;10.73;5.28;;;16.20;99.90;;;;;;5061406;28;20094;-74
2022/07/18 05:38:46;;;;;;;7.97;5.88;;;16.30;99.90;;;;;;5027112;28;20037;-75
2022/07/18 05:41:11;;;;;;;9.82;5.30;;;16.30;99.90;;;;;;5043611;28;20056;-75
2022/07/18 05:43:37;;;;;;;10.30;5.57;;;16.30;99.90;;;;;;5043535;28;20037;-75
2022/07/18 05:46:03;;;;;;;8.35;5.10;;;16.30;99.90;;;;;;5040905;28;20040;-75
2022/07/18 05:48:29;;;;;;;7.13;4.75;;;16.40;99.90;;;;;;5060259;28;20041;-75
2022/07/18 05:50:54;;;;;;;10.05;5.97;;;16.40;99.90;;;;;;5043616;28;20415;-74
2022/07/18 05:53:20;;;;;;;7.90;4.85;;;16.50;99.90;;;;;;5044686;28;20510;-75
2022/07/18 05:55:46;;;;;;;8.00;5.72;;;16.50;99.90;;;;;;5042736;28;20126;-75
2022/07/18 05:58:11;;;;;;;9.98;4.85;;;16.60;99.90;;;;;;5043998;28;20045;-75
2022/07/18 06:00:38;;;;;;;11.10;5.18;;;16.70;99.90;;;;;;5045292;28;20037;-75
2022/07/18 06:03:03;;;;;;;10.75;5.03;;;16.80;99.90;;;;;;5042406;28;20052;-74
2022/07/18 06:05:29;;;;;;;9.13;5.28;;;16.90;99.90;;;;;;5045767;28;20044;-75
2022/07/18 06:07:56;;;;;;;9.20;5.60;;;17.00;99.90;;;;;;5042553;28;20065;-75
2022/07/18 06:10:23;;;;;;;10.05;4.80;;;17.10;99.90;;;;;;5044291;28;20142;-75
2022/07/18 06:12:50;;;;;;;6.57;4.65;;;17.10;99.90;;;;;;5042445;28;20045;-75
2022/07/18 06:15:16;;;;;;;9.30;5.25;;;17.20;99.90;;;;;;5046980;28;20051;-74
2022/07/18 06:17:42;;;;;;;11.48;5.03;;;17.20;99.90;;;;;;5045073;28;20041;-74
2022/07/18 06:20:08;;;;;;;10.98;4.93;;;17.40;99.90;;;;;;5047903;28;20048;-75
2022/07/18 06:22:36;;;;;;;10.38;4.40;;;17.40;99.90;;;;;;5048207;28;20041;-75
2022/07/18 06:25:02;;;;;;;7.30;4.53;;;17.60;99.90;;;;;;5047496;28;20044;-75
2022/07/18 06:27:28;;;;;;;10.57;4.50;;;17.70;99.90;;;;;;5046151;28;20040;-75
2022/07/18 06:29:53;;;;;;;9.23;6.13;;;17.80;99.90;;;;;;5048177;28;20047;-76
2022/07/18 06:32:19;;;;;;;5.03;3.95;;;17.90;99.90;;;;;;5078614;28;20506;-75
2022/07/18 06:34:45;;;;;;;11.45;5.07;;;18.00;99.90;;;;;;5047227;28;20057;-75
2022/07/18 06:37:11;;;;;;;13.48;5.38;;;18.10;99.90;;;;;;5044359;28;20041;-75
2022/07/18 06:39:36;;;;;;;7.30;3.97;;;18.20;99.90;;;;;;5045525;28;20045;-75
2022/07/18 06:42:02;;;;;;;9.30;4.38;;;18.30;99.90;;;;;;5046777;28;20069;-75
2022/07/18 06:44:29;;;;;;;7.40;3.95;;;18.30;99.90;;;;;;5046406;28;20590;-75
2022/07/18 06:46:57;;;;;;;8.18;4.13;;;18.40;99.90;;;;;;5076762;28;20053;-75
2022/07/18 06:49:23;;;;;;;7.43;3.67;;;18.50;99.90;;;;;;5043499;28;20049;-76
2022/07/18 06:51:48;;;;;;;7.90;3.03;;;18.70;99.90;;;;;;5046422;28;20483;-76
2022/07/18 06:54:14;;;;;;;5.63;3.60;;;18.80;99.90;;;;;;5046058;28;20052;-76
2022/07/18 06:56:40;;;;;;;6.10;3.20;;;18.90;99.90;;;;;;5048104;28;20124;-76
2022/07/18 06:59:06;;;;;;;7.78;3.63;;;19.10;99.90;;;;;;5044945;28;20041;-76
2022/07/18 07:01:31;;;;;;;9.00;3.83;;;19.40;99.90;;;;;;5048248;28;20094;-76
2022/07/18 07:03:57;;;;;;;9.60;3.47;;;19.70;99.90;;;;;;5044162;28;20575;-75
2022/07/18 07:06:22;;;;;;;4.43;2.80;;;20.00;99.90;;;;;;5076636;28;20056;-76
2022/07/18 07:08:48;;;;;;;6.30;2.60;;;20.60;99.90;;;;;;5045213;28;20396;-76
2022/07/18 07:11:14;;;;;;;10.25;3.63;;;21.90;99.90;;;;;;5043584;28;20056;-77
2022/07/18 07:13:39;;;;;;;5.40;3.05;;;21.60;99.90;;;;;;5044858;28;20033;-77
2022/07/18 07:16:05;;;;;;;4.13;2.40;;;22.00;99.90;;;;;;5047108;28;20036;-78
2022/07/18 07:18:31;;;;;;;6.35;2.95;;;23.00;99.90;;;;;;5078992;28;20070;-78
2022/07/18 07:20:57;;;;;;;6.40;2.50;;;23.20;99.90;;;;;;5041655;28;20051;-78
2022/07/18 07:23:23;;;;;;;3.08;1.80;;;23.80;99.90;;;;;;5038213;28;20045;-78
2022/07/18 07:25:48;;;;;;;3.65;2.60;;;23.90;99.90;;;;;;5046384;28;20508;-76
2022/07/18 07:28:14;;;;;;;4.65;2.20;;;24.20;99.90;;;;;;5028345;28;20036;-78
2022/07/18 07:30:41;;;;;;;6.78;2.95;;;23.60;99.90;;;;;;5045157;28;20399;-77
2022/07/18 07:33:08;;;;;;;6.70;2.65;;;24.20;99.90;;;;;;5047682;28;20033;-77
2022/07/18 07:35:34;;;;;;;4.25;2.25;;;23.70;99.90;;;;;;5047583;28;20040;-78
2022/07/18 07:38:00;;;;;;;5.35;2.10;;;23.60;99.90;;;;;;5056816;28;20534;-77
2022/07/18 07:40:28;;;;;;;4.65;2.00;;;23.40;99.90;;;;;;5045470;28;20207;-77
2022/07/18 07:43:09;;;;;;;5.70;2.20;;;23.00;99.90;;;;;;5046785;28;20148;-76
2022/07/18 07:45:35;;;;;;;5.35;2.10;;;23.10;99.90;;;;;;5044518;28;20055;-77
2022/07/18 07:48:02;;;;;;;5.10;2.03;;;24.40;99.90;;;;;;5043894;28;20041;-76
2022/07/18 07:50:28;;;;;;;3.65;2.00;;;24.00;99.90;;;;;;5045467;28;20052;-76
2022/07/18 07:52:53;;;;;;;5.35;2.30;;;23.30;99.90;;;;;;5044077;28;20045;-75
2022/07/18 07:55:19;;;;;;;5.35;2.42;;;23.10;99.90;;;;;;5044075;28;20045;-76
2022/07/18 07:57:45;;;;;;;2.58;1.90;;;23.10;99.90;;;;;;5047357;28;20128;-75
2022/07/18 08:00:10;;;;;;;3.60;2.05;;;23.30;99.90;;;;;;5061805;28;20505;-76
2022/07/18 08:02:37;;;;;;;6.10;2.58;;;23.50;99.90;;;;;;5060876;28;20037;-76
2022/07/18 08:05:03;;;;;;;4.32;1.42;;;23.40;99.90;;;;;;5045016;28;20053;-76
2022/07/18 08:07:28;;;;;;;9.40;1.83;;;23.40;99.90;;;;;;5044970;28;20060;-76
2022/07/18 08:09:54;;;;;;;6.97;1.67;;;23.80;99.90;;;;;;5042564;28;20493;-76
2022/07/18 08:12:20;;;;;;;5.95;2.53;;;24.10;99.90;;;;;;5047435;28;20044;-76
2022/07/18 08:14:45;;;;;;;6.32;1.63;;;24.00;99.90;;;;;;5066577;28;20064;-75
2022/07/18 08:17:11;;;;;;;3.40;1.67;;;23.90;99.90;;;;;;5066044;28;20076;-76
2022/07/18 08:19:36;;;;;;;4.72;1.90;;;23.60;99.90;;;;;;5066116;28;20048;-76
2022/07/18 08:22:02;;;;;;;2.38;1.50;;;23.50;99.90;;;;;;5053101;28;20534;-76
2022/07/18 08:24:28;;;;;;;3.83;1.83;;;23.80;99.90;;;;;;5044385;28;20049;-75
2022/07/18 08:26:53;;;;;;;6.97;2.47;;;24.00;99.90;;;;;;5044896;28;21757;-76
2022/07/18 08:29:19;;;;;;;5.45;2.17;;;24.30;99.90;;;;;;5065017;28;20058;-76
2022/07/18 08:31:45;;;;;;;5.65;1.48;;;24.60;99.90;;;;;;5064670;28;20139;-76
2022/07/18 08:34:10;;;;;;;3.92;1.92;;;24.70;99.90;;;;;;5046198;28;20412;-74
2022/07/18 08:36:36;;;;;;;7.50;1.70;;;24.70;99.90;;;;;;5075114;28;20049;-73
2022/07/18 08:39:01;;;;;;;3.15;1.70;;;25.00;99.90;;;;;;5043436;28;20045;-75
2022/07/18 08:41:27;;;;;;;6.10;2.08;;;25.00;99.90;;;;;;5044119;28;20068;-75
2022/07/18 08:43:54;;;;;;;4.60;1.60;;;25.00;99.90;;;;;;5040906;28;20530;-75
2022/07/18 08:46:21;;;;;;;4.47;1.58;;;25.00;99.90;;;;;;5045102;28;20049;-74
2022/07/18 08:48:51;;;;;;;5.90;1.52;;;25.00;99.90;;;;;;5028192;28;20052;-74
2022/07/18 08:51:18;;;;;;;4.07;1.60;;;24.90;99.90;;;;;;5048990;28;20052;-74
2022/07/18 08:53:46;;;;;;;8.80;2.50;;;24.80;99.90;;;;;;5044762;28;20489;-75
2022/07/18 08:56:12;;;;;;;6.75;2.30;;;24.70;99.90;;;;;;5043129;28;20036;-75
2022/07/18 08:58:38;;;;;;;5.75;1.48;;;24.90;99.90;;;;;;5044311;28;20060;-76
2022/07/18 09:01:03;;;;;;;5.97;1.90;;;25.00;99.90;;;;;;5043383;28;20064;-75
2022/07/18 09:03:29;;;;;;;7.60;2.58;;;25.20;99.90;;;;;;5024755;28;20041;-75
2022/07/18 09:06:13;;;;;;;5.47;1.45;;;25.40;99.90;;;;;;5064367;28;20414;-74
2022/07/18 09:08:57;;;;;;;3.33;1.15;;;25.70;99.90;;;;;;5044776;28;20045;-76
2022/07/18 09:11:22;;;;;;;9.45;2.72;;;25.70;99.90;;;;;;5045723;28;20091;-77
2022/07/18 09:13:48;;;;;;;6.60;2.22;;;25.70;99.90;;;;;;5042872;28;20125;-80
2022/07/18 09:16:15;;;;;;;5.13;1.98;;;25.80;99.90;;;;;;5043472;28;20056;-77
2022/07/18 09:19:05;;;;;;;6.72;2.05;;;25.80;99.90;;;;;;5023009;28;20041;-76
2022/07/18 09:21:36;;;;;;;6.95;1.85;;;26.00;99.90;;;;;;5038812;28;20045;-77
2022/07/18 09:24:02;;;;;;;4.07;1.92;;;26.20;99.90;;;;;;5043941;28;20124;-77
2022/07/18 09:26:40;;;;;;;3.88;2.47;;;26.10;99.90;;;;;;5042122;28;20171;-76
2022/07/18 09:29:06;;;;;;;5.40;2.50;;;26.10;99.90;;;;;;5042535;28;20130;-78
2022/07/18 09:31:31;;;;;;;6.50;1.42;;;26.30;99.90;;;;;;5043590;28;20083;-77
2022/07/18 09:34:00;;;;;;;2.33;1.73;;;26.40;99.90;;;;;;5044211;28;20040;-77
2022/07/18 09:36:27;;;;;;;4.28;1.75;;;26.60;99.90;;;;;;5045335;28;20041;-76
2022/07/18 09:38:52;;;;;;;4.32;1.50;;;26.40;99.90;;;;;;5046451;28;20033;-77
2022/07/18 09:41:24;;;;;;;3.63;1.63;;;26.40;99.90;;;;;;5046639;28;20114;-77
2022/07/18 09:43:50;;;;;;;4.93;1.50;;;26.50;99.90;;;;;;5047901;28;20692;-75
2022/07/18 09:46:16;;;;;;;7.55;1.88;;;26.60;99.90;;;;;;5047611;28;20266;-76
2022/07/18 09:48:42;;;;;;;3.90;1.80;;;26.70;99.90;;;;;;5046486;28;20183;-76
2022/07/18 09:51:09;;;;;;;4.15;1.55;;;26.80;99.90;;;;;;5076069;28;20060;-76
2022/07/18 09:53:36;;;;;;;4.07;1.60;;;26.70;99.90;;;;;;5046395;28;20051;-77
2022/07/18 09:56:08;;;;;;;5.93;1.98;;;26.50;99.90;;;;;;5048248;28;20166;-75
2022/07/18 09:58:39;;;;;;;5.05;2.10;;;26.30;99.90;;;;;;5030872;28;20071;-76
2022/07/18 10:01:07;;;;;;;5.78;1.60;;;26.40;99.90;;;;;;5045704;28;20037;-77
2022/07/18 10:03:33;;;;;;;6.82;2.00;;;26.50;99.90;;;;;;5046788;28;20036;-75
2022/07/18 10:06:00;;;;;;;5.78;1.95;;;26.60;99.90;;;;;;5048025;28;20052;-75
2022/07/18 10:08:28;;;;;;;7.55;2.08;;;26.70;99.90;;;;;;5046456;28;20132;-75
2022/07/18 10:10:56;;;;;;;6.60;1.77;;;26.80;99.90;;;;;;5044783;28;20644;-76
2022/07/18 10:13:23;;;;;;;7.95;1.52;;;26.90;99.90;;;;;;5029351;28;20128;-73
2022/07/18 10:15:50;;;;;;;5.68;2.05;;;27.00;99.90;;;;;;5046693;28;20045;-78
2022/07/18 10:18:20;;;;;;;4.60;2.08;;;27.20;99.90;;;;;;5047076;28;20037;-76
2022/07/18 10:20:50;;;;;;;5.85;2.10;;;27.30;99.90;;;;;;5045596;28;20128;-77
2022/07/18 10:23:38;;;;;;;6.38;1.75;;;27.20;99.90;;;;;;5047453;28;20319;-77
2022/07/18 10:26:24;;;;;;;5.57;2.10;;;27.30;99.90;;;;;;5078967;28;20048;-78
2022/07/18 10:28:56;;;;;;;11.30;2.67;;;27.50;99.90;;;;;;5047622;28;20045;-78
2022/07/18 10:31:59;;;;;;;4.18;1.65;;;27.60;99.90;;;;;;5047543;28;20073;-77
2022/07/18 10:34:36;;;;;;;3.83;1.83;;;27.70;99.90;;;;;;5044341;28;20056;-77
2022/07/18 10:37:03;;;;;;;5.10;1.90;;;27.70;99.90;;;;;;5046521;28;20056;-77
2022/07/18 10:39:50;;;;;;;6.03;2.38;;;27.70;99.90;;;;;;5045715;28;20045;-79
2022/07/18 10:42:18;;;;;;;2.55;1.80;;;27.40;99.90;;;;;;5048113;28;20041;-79
2022/07/18 10:44:44;;;;;;;6.95;2.63;;;27.20;99.90;;;;;;5046019;28;20102;-78
2022/07/18 10:47:20;;;;;;;3.90;1.70;;;27.20;99.90;;;;;;5046732;28;20837;-77
2022/07/18 10:50:00;;;;;;;5.00;2.28;;;27.30;99.90;;;;;;5043058;28;20048;-77
2022/07/18 10:52:26;;;;;;;4.53;1.85;;;27.30;99.90;;;;;;5045495;28;20126;-77
2022/07/18 10:55:06;;;;;;;4.28;2.05;;;27.40;99.90;;;;;;5044166;28;20036;-76
2022/07/18 10:57:59;;;;;;;5.47;2.05;;;27.60;99.90;;;;;;5046259;28;20439;-77
2022/07/18 11:00:35;;;;;;;6.85;2.92;;;27.70;99.90;;;;;;5062258;28;20526;-77
2022/07/18 11:03:06;;;;;;;6.07;2.17;;;27.50;99.90;;;;;;5047106;28;20056;-78
2022/07/18 11:05:33;;;;;;;3.63;2.50;;;27.70;99.90;;;;;;5045037;28;20057;-77
2022/07/18 11:07:59;;;;;;;8.88;2.45;;;28.00;99.90;;;;;;5043309;28;20110;-77
2022/07/18 11:10:55;;;;;;;6.95;1.95;;;28.00;99.90;;;;;;5044382;28;20447;-76
2022/07/18 11:13:33;;;;;;;5.47;2.53;;;28.10;99.90;;;;;;5036741;28;20105;-77
2022/07/18 11:16:18;;;;;;;5.35;2.15;;;28.20;99.90;;;;;;5044891;28;20110;-76
2022/07/18 11:18:44;;;;;;;4.90;1.70;;;28.20;99.90;;;;;;5044165;28;20076;-76
2022/07/18 11:21:34;;;;;;;2.45;1.80;;;28.30;99.90;;;;;;5046800;28;20079;-76
2022/07/18 11:24:02;;;;;;;5.28;2.28;;;28.20;99.90;;;;;;5013007;28;20049;-78
2022/07/18 11:26:29;;;;;;;5.65;2.50;;;27.80;99.90;;;;;;5044984;28;20451;-76
2022/07/18 11:29:07;;;;;;;7.85;2.85;;;27.70;99.90;;;;;;5028372;28;20372;-77
2022/07/18 11:31:53;;;;;;;5.93;2.47;;;27.40;99.90;;;;;;5046012;28;20037;-77
2022/07/18 11:34:20;;;;;;;5.05;2.38;;;27.30;99.90;;;;;;5044977;28;20471;-74
2022/07/18 11:36:47;;;;;;;3.97;2.33;;;27.10;99.90;;;;;;5045965;28;20052;-77
2022/07/18 11:39:16;;;;;;;5.75;2.55;;;27.20;99.90;;;;;;5044887;28;20041;-80
2022/07/18 11:41:42;;;;;;;11.45;2.97;;;27.10;99.90;;;;;;5046246;28;20040;-77
2022/07/18 11:44:26;;;;;;;3.85;2.85;;;27.10;99.90;;;;;;5041239;28;20041;-78
2022/07/18 11:47:02;;;;;;;10.07;3.80;;;27.00;99.90;;;;;;5040533;28;20064;-78
2022/07/18 11:49:27;;;;;;;5.80;2.92;;;27.10;99.90;;;;;;5044873;28;20487;-78
2022/07/18 11:51:53;;;;;;;9.43;3.63;;;27.20;99.90;;;;;;5045318;28;20053;-78
2022/07/18 11:54:25;;;;;;;3.45;2.30;;;27.10;99.90;;;;;;5044410;28;20095;-77
2022/07/18 11:56:53;;;;;;;17.77;4.22;;;27.10;99.90;;;;;;5043732;28;20400;-77
2022/07/18 11:59:19;;;;;;;7.53;2.42;;;27.10;99.90;;;;;;5046003;28;20461;-74
2022/07/18 12:01:45;;;;;;;8.20;3.10;;;27.20;99.90;;;;;;5046718;28;20049;-78
2022/07/18 12:04:19;;;;;;;4.93;2.60;;;27.10;99.90;;;;;;5044866;28;20052;-77
2022/07/18 12:06:46;;;;;;;3.15;2.35;;;27.10;99.90;;;;;;5046462;28;20041;-77
2022/07/18 12:09:12;;;;;;;8.10;3.58;;;27.20;99.90;;;;;;5044224;28;20052;-78
2022/07/18 12:11:39;;;;;;;4.40;2.10;;;27.40;99.90;;;;;;5044626;28;20419;-78
2022/07/18 12:14:08;;;;;;;9.55;2.72;;;27.60;99.90;;;;;;5077003;28;20048;-79
2022/07/18 12:16:56;;;;;;;7.75;2.70;;;28.00;99.90;;;;;;5043414;28;20201;-78
2022/07/18 12:19:31;;;;;;;6.57;2.78;;;28.00;99.90;;;;;;5044694;28;20083;-79
2022/07/18 12:22:04;;;;;;;5.07;2.50;;;28.10;99.90;;;;;;5045597;28;20044;-78
2022/07/18 12:24:40;;;;;;;5.95;2.95;;;28.30;99.90;;;;;;5027259;28;20137;-77
2022/07/18 12:27:20;;;;;;;7.38;3.53;;;28.20;99.90;;;;;;5044629;28;20052;-77
2022/07/18 12:30:09;;;;;;;4.15;3.60;;;28.30;99.90;;;;;;5045425;28;20048;-78
2022/07/18 12:32:56;;;;;;;6.78;2.97;;;28.30;99.90;;;;;;5045844;28;20124;-78
2022/07/18 12:35:24;;;;;;;4.75;2.72;;;28.50;99.90;;;;;;5076147;28;20071;-78
2022/07/18 12:37:59;;;;;;;3.88;2.33;;;28.60;99.90;;;;;;5043214;28;20041;-78
2022/07/18 12:40:37;;;;;;;4.68;2.80;;;28.60;99.90;;;;;;5043883;28;20049;-77
2022/07/18 12:43:12;;;;;;;9.60;4.30;;;28.40;99.90;;;;;;5043947;28;20107;-80
2022/07/18 12:45:38;;;;;;;12.73;3.08;;;28.50;99.90;;;;;;5042913;28;20483;-78
2022/07/18 12:48:06;;;;;;;4.22;2.58;;;28.70;99.90;;;;;;5043103;28;20056;-77
2022/07/18 12:50:33;;;;;;;11.68;3.13;;;28.60;99.30;;;;;;5043117;28;20055;-77